createdAt,value
2023-01-13T00:00:51.934Z,100243.03
2023-01-13T00:03:53.947Z,100241.28
2023-01-13T00:06:55.772Z,100246.28
2023-01-13T00:09:57.731Z,100253.41
2023-01-13T00:13:00.206Z,100254.38
2023-01-13T00:16:07.672Z,100252.44
2023-01-13T00:19:09.721Z,100258.59
2023-01-13T00:22:11.639Z,100246.28
2023-01-13T00:25:13.753Z,100244.28
2023-01-13T00:28:15.613Z,100241.84
2023-01-13T00:31:19.921Z,100239.91
2023-01-13T00:34:22.689Z,100247.81
2023-01-13T00:37:25.064Z,100252.16
2023-01-13T00:40:27.019Z,100246.09
2023-01-13T00:43:30.701Z,100251.97
2023-01-13T00:46:32.604Z,100249.16
2023-01-13T00:49:34.579Z,100252.47
2023-01-13T00:52:36.553Z,100250.66
2023-01-13T00:55:38.584Z,100246.31
2023-01-13T00:58:41.307Z,100245.41
2023-01-13T01:01:43.614Z,100249.66
2023-01-13T01:04:45.657Z,100256.88
2023-01-13T01:07:47.556Z,100250.88
2023-01-13T01:10:49.519Z,100250.09
2023-01-13T01:13:52.873Z,100248.19
2023-01-13T01:16:54.912Z,100242.84
2023-01-13T01:19:57.005Z,100234.97
2023-01-13T01:22:58.977Z,100236.78
2023-01-13T01:26:05.413Z,100239.47
2023-01-13T01:29:07.366Z,100235.75
2023-01-13T01:32:09.189Z,100228.69
2023-01-13T01:35:11.179Z,100233.06
2023-01-13T01:38:13.032Z,100225.28
2023-01-13T01:41:17.596Z,100227.91
2023-01-13T01:44:54.027Z,100233.03
2023-01-13T01:48:04.440Z,100230.47
2023-01-13T01:51:12.647Z,100225.09
2023-01-13T01:54:20.683Z,100218.03
2023-01-13T01:57:54.359Z,100213.75
2023-01-13T02:00:56.397Z,100220.81
2023-01-13T02:04:05.350Z,100222.59
2023-01-13T02:07:08.150Z,100221.44
2023-01-13T02:10:13.915Z,100217.97
2023-01-13T02:13:15.928Z,100215.34
2023-01-13T02:16:23.221Z,100218.69
2023-01-13T02:19:37.076Z,100218.38
2023-01-13T02:23:03.618Z,100217.34
2023-01-13T02:26:11.663Z,100219.19
2023-01-13T02:30:10.410Z,100218.38
2023-01-13T02:33:27.238Z,100211.44
2023-01-13T02:36:54.039Z,100215.50
2023-01-13T02:40:01.572Z,100212.22
2023-01-13T02:43:36.225Z,100219.06
2023-01-13T02:46:45.203Z,100201.78
2023-01-13T02:49:51.207Z,100214.06
2023-01-13T02:52:58.551Z,100211.38
2023-01-13T02:56:03.616Z,100201.78
2023-01-13T02:59:06.664Z,100200.00
2023-01-13T03:02:13.256Z,100199.97
2023-01-13T03:05:17.561Z,100205.88
2023-01-13T03:08:31.366Z,100207.56
2023-01-13T03:11:59.655Z,100212.09
2023-01-13T03:15:17.339Z,100209.53
2023-01-13T03:18:50.875Z,100205.88
2023-01-13T03:22:07.821Z,100213.94
2023-01-13T03:25:27.857Z,100212.75
2023-01-13T03:28:41.365Z,100211.06
2023-01-13T03:31:50.801Z,100208.19
2023-01-13T03:35:17.562Z,100205.56
2023-01-13T03:38:26.251Z,100210.94
2023-01-13T03:41:36.075Z,100209.28
2023-01-13T03:44:46.587Z,100216.13
2023-01-13T03:47:55.469Z,100206.66
2023-01-13T03:51:05.306Z,100199.66
2023-01-13T03:54:10.200Z,100210.38
2023-01-13T03:57:15.569Z,100208.50
2023-01-13T04:00:19.690Z,100205.94
2023-01-13T04:03:31.772Z,100210.94
2023-01-13T04:06:38.195Z,100202.00
2023-01-13T04:09:43.080Z,100207.06
2023-01-13T04:13:02.806Z,100211.34
2023-01-13T04:16:07.093Z,100210.44
2023-01-13T04:19:09.012Z,100200.84
2023-01-13T04:22:10.890Z,100209.63
2023-01-13T04:25:12.796Z,100204.38
2023-01-13T04:28:15.461Z,100212.44
2023-01-13T04:31:17.756Z,100216.59
2023-01-13T04:34:19.860Z,100216.59
2023-01-13T04:37:21.703Z,100220.94
2023-01-13T04:40:23.656Z,100211.34
2023-01-13T04:43:25.523Z,100223.44
2023-01-13T04:46:27.508Z,100220.75
2023-01-13T04:49:29.342Z,100213.13
2023-01-13T04:52:31.263Z,100206.09
2023-01-13T04:55:33.207Z,100207.81
2023-01-13T04:58:35.107Z,100202.69
2023-01-13T05:01:37.664Z,100206.09
2023-01-13T05:04:39.776Z,100197.38
2023-01-13T05:07:41.588Z,100198.28
2023-01-13T05:10:43.441Z,100205.50
2023-01-13T05:14:03.725Z,100203.41
2023-01-13T05:17:08.828Z,100200.06
2023-01-13T05:20:11.174Z,100203.59
2023-01-13T05:23:31.445Z,100208.84
2023-01-13T05:26:33.287Z,100219.34
2023-01-13T05:29:35.514Z,100213.91
2023-01-13T05:32:37.484Z,100216.72
2023-01-13T05:35:41.103Z,100219.03
2023-01-13T05:38:42.959Z,100219.09
2023-01-13T05:42:03.220Z,100221.00
2023-01-13T05:45:05.419Z,100220.13
2023-01-13T05:48:07.269Z,100229.66
2023-01-13T05:51:11.682Z,100227.88
2023-01-13T05:54:13.738Z,100231.44
2023-01-13T05:57:15.569Z,100227.09
2023-01-13T06:00:17.999Z,100236.84
2023-01-13T06:03:20.307Z,100235.94
2023-01-13T06:06:22.171Z,100232.09
2023-01-13T06:09:24.037Z,100234.59
2023-01-13T06:12:25.855Z,100229.47
2023-01-13T06:15:27.840Z,100226.84
2023-01-13T06:18:29.807Z,100234.59
2023-01-13T06:21:33.205Z,100232.75
2023-01-13T06:24:36.105Z,100227.50
2023-01-13T06:27:38.585Z,100231.84
2023-01-13T06:30:46.931Z,100227.38
2023-01-13T06:33:52.680Z,100234.28
2023-01-13T06:36:55.744Z,100224.50
2023-01-13T06:39:59.767Z,100230.84
2023-01-13T06:43:17.956Z,100224.63
2023-01-13T06:46:19.976Z,100234.03
2023-01-13T06:49:22.004Z,100228.75
2023-01-13T06:52:24.479Z,100237.25
2023-01-13T06:55:26.423Z,100232.91
2023-01-13T06:58:28.369Z,100237.25
2023-01-13T07:01:30.474Z,100238.94
2023-01-13T07:04:32.476Z,100236.19
2023-01-13T07:07:34.365Z,100243.75
2023-01-13T07:10:37.179Z,100242.84
2023-01-13T07:13:57.710Z,100248.88
2023-01-13T07:16:59.651Z,100240.94
2023-01-13T07:20:01.661Z,100241.19
2023-01-13T07:23:03.536Z,100244.72
2023-01-13T07:26:06.602Z,100247.28
2023-01-13T07:29:08.519Z,100246.91
2023-01-13T07:32:10.475Z,100253.00
2023-01-13T07:35:12.410Z,100252.69
2023-01-13T07:38:15.092Z,100250.78
2023-01-13T07:41:35.867Z,100256.16
2023-01-13T07:44:37.981Z,100265.69
2023-01-13T07:47:40.467Z,100256.22
2023-01-13T07:50:44.137Z,100258.72
2023-01-13T07:53:46.159Z,100270.69
2023-01-13T07:56:48.062Z,100269.56
2023-01-13T07:59:49.913Z,100265.34
2023-01-13T08:02:52.279Z,100264.56
2023-01-13T08:05:54.133Z,100258.53
2023-01-13T08:08:56.049Z,100254.91
2023-01-13T08:12:16.793Z,100252.16
2023-01-13T08:15:18.673Z,100245.25
2023-01-13T08:18:23.053Z,100242.22
2023-01-13T08:21:24.916Z,100249.97
2023-01-13T08:24:26.899Z,100243.75
2023-01-13T08:27:28.852Z,100242.22
2023-01-13T08:30:30.766Z,100254.59
2023-01-13T08:33:33.231Z,100244.66
2023-01-13T08:36:35.135Z,100247.03
2023-01-13T08:39:36.995Z,100247.41
2023-01-13T08:42:38.861Z,100241.31
2023-01-13T08:45:40.874Z,100236.78
2023-01-13T08:48:42.641Z,100234.09
2023-01-13T08:51:45.079Z,100237.22
2023-01-13T08:54:46.992Z,100241.56
2023-01-13T08:57:48.883Z,100229.00
2023-01-13T09:00:50.807Z,100227.88
2023-01-13T09:03:53.232Z,100222.81
2023-01-13T09:06:55.688Z,100219.34
2023-01-13T09:09:57.626Z,100218.47
2023-01-13T09:13:14.772Z,100218.91
2023-01-13T09:16:16.725Z,100227.59
2023-01-13T09:19:18.943Z,100219.06
2023-01-13T09:22:20.884Z,100214.16
2023-01-13T09:25:22.763Z,100218.63
2023-01-13T09:28:24.658Z,100217.56
2023-01-13T09:31:26.487Z,100217.72
2023-01-13T09:34:46.953Z,100211.53
2023-01-13T09:37:48.804Z,100206.28
2023-01-13T09:40:50.748Z,100208.25
2023-01-13T09:43:59.293Z,100204.06
2023-01-13T09:47:07.008Z,100201.88
2023-01-13T09:50:22.255Z,100196.34
2023-01-13T09:53:34.439Z,100191.72
2023-01-13T09:56:36.523Z,100184.47
2023-01-13T09:59:38.838Z,100190.50
2023-01-13T10:03:08.430Z,100190.13
2023-01-13T10:06:12.951Z,100189.00
2023-01-13T10:09:38.312Z,100186.59
2023-01-13T10:13:01.489Z,100186.59
2023-01-13T10:16:24.779Z,100178.41
2023-01-13T10:19:34.998Z,100170.66
2023-01-13T10:22:42.960Z,100180.88
2023-01-13T10:26:03.966Z,100181.50
2023-01-13T10:29:19.296Z,100172.69
2023-01-13T10:32:21.124Z,100164.72
2023-01-13T10:35:49.972Z,100160.31
2023-01-13T10:38:52.029Z,100166.81
2023-01-13T10:42:13.774Z,100161.16
2023-01-13T10:45:25.527Z,100153.06
2023-01-13T10:48:38.167Z,100163.28
2023-01-13T10:51:39.933Z,100161.81
2023-01-13T10:54:51.881Z,100162.66
2023-01-13T10:57:53.893Z,100164.22
2023-01-13T11:01:01.185Z,100157.72
2023-01-13T11:04:27.049Z,100160.13
2023-01-13T11:07:38.880Z,100164.16
2023-01-13T11:10:47.013Z,100150.84
2023-01-13T11:14:12.154Z,100153.47
2023-01-13T11:17:29.361Z,100151.69
2023-01-13T11:20:37.001Z,100149.75
2023-01-13T11:23:49.224Z,100147.91
2023-01-13T11:27:02.174Z,100147.19
2023-01-13T11:30:10.157Z,100149.84
2023-01-13T11:33:15.259Z,100149.75
2023-01-13T11:36:35.060Z,100155.09
2023-01-13T11:39:56.317Z,100140.22
2023-01-13T11:43:31.632Z,100144.41
2023-01-13T11:46:33.548Z,100152.78
2023-01-13T11:49:35.778Z,100139.78
2023-01-13T11:53:25.277Z,100135.59
2023-01-13T11:56:32.985Z,100136.44
2023-01-13T11:59:59.163Z,100130.78
2023-01-13T12:03:19.454Z,100123.75
2023-01-13T12:06:33.001Z,100134.19
2023-01-13T12:09:52.735Z,100131.25
2023-01-13T12:13:22.035Z,100126.22
2023-01-13T12:16:31.729Z,100133.88
2023-01-13T12:19:33.743Z,100128.69
2023-01-13T12:22:37.260Z,100142.78
2023-01-13T12:25:50.156Z,100148.13
2023-01-13T12:29:04.916Z,100154.09
2023-01-13T12:32:14.986Z,100145.44
2023-01-13T12:35:38.907Z,100147.97
2023-01-13T12:38:48.419Z,100150.47
2023-01-13T12:42:31.894Z,100148.06
2023-01-13T12:45:34.028Z,100157.97
2023-01-13T12:48:57.230Z,100153.31
2023-01-13T12:52:16.056Z,100150.06
2023-01-13T12:55:35.199Z,100156.97
2023-01-13T12:58:36.999Z,100154.50
2023-01-13T13:01:38.960Z,100148.38
2023-01-13T13:04:43.697Z,100157.91
2023-01-13T13:07:48.767Z,100157.28
2023-01-13T13:11:34.110Z,100156.28
2023-01-13T13:14:42.155Z,100153.09
2023-01-13T13:17:45.958Z,100156.66
2023-01-13T13:20:54.282Z,100161.84
2023-01-13T13:23:56.170Z,100168.81
2023-01-13T13:27:16.198Z,100168.03
2023-01-13T13:30:29.799Z,100170.59
2023-01-13T13:33:52.880Z,100177.63
2023-01-13T13:37:22.209Z,100164.47
2023-01-13T13:40:43.629Z,100174.16
2023-01-13T13:44:04.932Z,100168.88
2023-01-13T13:47:07.631Z,100164.78
2023-01-13T13:50:16.175Z,100171.75
2023-01-13T13:53:19.805Z,100170.75
2023-01-13T13:56:26.315Z,100170.91
2023-01-13T13:59:30.734Z,100163.22
2023-01-13T14:02:37.662Z,100167.56
2023-01-13T14:05:39.505Z,100175.69
2023-01-13T14:08:46.583Z,100176.63
2023-01-13T14:12:16.513Z,100169.09
2023-01-13T14:15:34.726Z,100182.09
2023-01-13T14:18:47.539Z,100182.88
2023-01-13T14:21:49.352Z,100183.13
2023-01-13T14:24:55.747Z,100188.22
2023-01-13T14:28:00.463Z,100196.72
2023-01-13T14:31:02.795Z,100194.72
2023-01-13T14:34:32.437Z,100195.34
2023-01-13T14:37:41.670Z,100198.13
2023-01-13T14:40:45.446Z,100210.28
2023-01-13T14:43:49.292Z,100197.50
2023-01-13T14:46:51.938Z,100210.81
2023-01-13T14:50:16.445Z,100201.84
2023-01-13T14:53:35.621Z,100205.53
2023-01-13T14:56:55.575Z,100204.53
2023-01-13T15:00:08.038Z,100192.00
2023-01-13T15:03:14.801Z,100191.09
2023-01-13T15:06:24.921Z,100192.16
2023-01-13T15:09:33.364Z,100186.97
2023-01-13T17:59:26.475Z,100180.19
2023-01-13T18:02:30.263Z,100178.78
2023-01-13T18:05:34.128Z,100178.56
2023-01-13T18:08:36.108Z,100177.34
2023-01-13T18:11:38.212Z,100178.06
2023-01-13T18:14:40.202Z,100184.38
2023-01-13T18:17:42.170Z,100171.94
2023-01-13T18:21:03.511Z,100184.09
2023-01-13T18:24:24.784Z,100183.09
2023-01-13T18:27:30.953Z,100191.06
2023-01-13T18:30:33.247Z,100186.44
2023-01-13T18:33:36.326Z,100182.66
2023-01-13T18:36:39.194Z,100179.41
2023-01-13T18:39:41.528Z,100186.38
2023-01-13T18:42:53.657Z,100187.16
2023-01-13T18:45:55.622Z,100187.06
2023-01-13T18:48:57.844Z,100186.06
2023-01-13T18:51:59.863Z,100187.16
2023-01-13T18:55:02.005Z,100189.91
2023-01-13T18:58:04.519Z,100184.66
2023-01-13T19:01:06.925Z,100183.94
2023-01-13T19:04:15.853Z,100181.25
2023-01-13T19:07:23.487Z,100180.47
2023-01-13T19:10:25.420Z,100175.28
2023-01-13T19:13:27.340Z,100175.28
2023-01-13T19:16:29.654Z,100173.56
2023-01-13T19:19:31.609Z,100172.78
2023-01-13T19:22:34.722Z,100177.50
2023-01-13T19:25:37.126Z,100170.44
2023-01-13T19:28:40.667Z,100173.94
2023-01-13T19:31:42.541Z,100181.97
2023-01-13T19:34:44.914Z,100181.25
2023-01-13T19:37:46.853Z,100175.78
2023-01-13T19:41:00.628Z,100182.19
2023-01-13T19:44:21.312Z,100181.25
2023-01-13T19:47:23.477Z,100177.41
2023-01-13T19:50:25.769Z,100180.75
2023-01-13T19:53:29.062Z,100173.56
2023-01-13T19:56:31.033Z,100172.66
2023-01-13T19:59:33.617Z,100168.16
2023-01-13T20:02:37.082Z,100172.50
2023-01-13T20:05:39.015Z,100172.66
2023-01-13T20:08:42.050Z,100173.44
2023-01-13T20:11:43.812Z,100172.00
2023-01-13T20:14:47.670Z,100175.44
2023-01-13T20:17:49.532Z,100177.13
2023-01-13T20:20:51.454Z,100169.31
2023-01-13T20:23:53.730Z,100158.88
2023-01-13T20:26:55.742Z,100162.41
2023-01-13T20:29:57.652Z,100165.97
2023-01-13T20:32:59.556Z,100167.03
2023-01-13T20:36:01.709Z,100168.91
2023-01-13T20:39:06.238Z,100167.19
2023-01-13T20:42:28.091Z,100154.97
2023-01-13T20:45:29.957Z,100159.38
2023-01-13T20:48:32.846Z,100164.84
2023-01-13T20:51:34.731Z,100161.16
2023-01-13T20:54:41.374Z,100158.38
2023-01-13T20:57:43.570Z,100154.81
2023-01-13T21:00:45.471Z,100151.41
2023-01-13T21:03:47.440Z,100147.00
2023-01-13T21:06:49.960Z,100151.47
2023-01-13T21:09:51.890Z,100149.69
2023-01-13T21:13:12.186Z,100146.06
2023-01-13T21:16:14.267Z,100152.19
2023-01-13T21:19:16.845Z,100152.97
2023-01-13T21:22:18.761Z,100151.97
2023-01-13T21:25:20.738Z,100164.13
2023-01-13T21:28:25.189Z,100165.97
2023-01-13T21:31:27.787Z,100172.94
2023-01-13T21:34:29.757Z,100161.63
2023-01-13T21:37:31.701Z,100165.19
2023-01-13T21:40:33.675Z,100164.41
2023-01-13T21:44:06.759Z,100160.94
2023-01-13T21:47:35.556Z,100166.34
2023-01-13T21:50:38.655Z,100154.03
2023-01-13T21:53:40.582Z,100155.81
2023-01-13T21:56:42.440Z,100155.97
2023-01-13T21:59:44.345Z,100144.53
2023-01-13T22:02:46.688Z,100151.56
2023-01-13T22:05:54.822Z,100155.25
2023-01-13T22:08:59.984Z,100159.88
2023-01-13T22:12:01.934Z,100151.97
2023-01-13T22:15:04.316Z,100153.69
2023-01-13T22:18:06.316Z,100148.44
2023-01-13T22:21:08.337Z,100152.75
2023-01-13T22:24:10.277Z,100155.47
2023-01-13T22:27:18.542Z,100150.91
2023-01-13T22:30:25.129Z,100149.28
2023-01-13T22:33:27.055Z,100145.94
2023-01-13T22:36:28.938Z,100141.47
2023-01-13T22:39:30.857Z,100147.50
2023-01-13T22:42:37.030Z,100139.53
2023-01-13T22:45:39.104Z,100139.75
2023-01-13T22:48:41.202Z,100138.84
2023-01-13T22:51:44.119Z,100142.19
2023-01-13T22:54:45.931Z,100133.44
2023-01-13T22:57:48.561Z,100138.69
2023-01-13T23:00:50.881Z,100141.31
2023-01-13T23:03:53.440Z,100135.50
2023-01-13T23:06:55.413Z,100135.50
2023-01-13T23:09:57.311Z,100130.94
2023-01-13T23:12:59.213Z,100139.06
2023-01-13T23:16:12.249Z,100143.31
2023-01-13T23:19:14.239Z,100136.63
2023-01-13T23:22:18.738Z,100130.59
2023-01-13T23:25:20.607Z,100143.75
2023-01-13T23:28:22.835Z,100132.22
2023-01-13T23:31:24.748Z,100140.06
2023-01-13T23:34:26.760Z,100137.13
2023-01-13T23:37:28.715Z,100137.00
2023-01-13T23:40:30.732Z,100141.25
2023-01-13T23:43:32.812Z,100142.88
2023-01-13T23:46:35.434Z,100140.47
2023-01-13T23:49:37.400Z,100138.69
2023-01-13T23:52:39.312Z,100136.63
2023-01-13T23:55:41.158Z,100135.78
2023-01-13T23:58:44.026Z,100136.63
